Time;durP1;ratioP1;P1;durP2;ratioP2;P2;SDS_P1;SDS_P2;PMS_P1;PMS_P2;Temp;Humidity;BMP_temperature;BMP_pressure;BME280_temperature;BME280_humidity;BME280_pressure;Samples;Min_cycle;Max_cycle;Signal;HPM_P1;HPM_P2
2022/07/03 00:02:23;;;;;;;15.63;4.63;;;;;;;;;;6277295;22;20451;-71
2022/07/03 00:04:48;;;;;;;16.30;5.00;;;;;;;;;;6277097;22;20281;-71
2022/07/03 00:07:13;;;;;;;17.27;5.13;;;;;;;;;;6277398;22;20554;-71
2022/07/03 00:09:38;;;;;;;17.58;4.90;;;;;;;;;;6276588;22;20011;-71
2022/07/03 00:12:04;;;;;;;12.05;4.70;;;;;;;;;;6276740;22;20023;-71
2022/07/03 00:14:29;;;;;;;10.60;4.70;;;;;;;;;;6277112;22;20378;-71
2022/07/03 00:16:54;;;;;;;22.33;5.55;;;;;;;;;;6276762;22;20312;-71
2022/07/03 00:19:20;;;;;;;13.50;5.75;;;;;;;;;;6277181;22;19992;-71
2022/07/03 00:21:48;;;;;;;13.40;4.95;;;;;;;;;;6276696;22;20328;-71
2022/07/03 00:24:29;;;;;;;18.13;5.40;;;;;;;;;;6277130;22;20008;-71
2022/07/03 00:26:55;;;;;;;21.50;5.22;;;;;;;;;;6276590;22;20022;-71
2022/07/03 00:29:21;;;;;;;13.05;4.63;;;;;;;;;;6277074;22;20011;-71
2022/07/03 00:31:46;;;;;;;15.52;4.75;;;;;;;;;;6276258;22;20466;-71
2022/07/03 00:34:14;;;;;;;15.95;5.50;;;;;;;;;;6277046;22;19996;-71
2022/07/03 00:36:40;;;;;;;18.85;5.72;;;;;;;;;;6276825;22;20065;-71
2022/07/03 00:39:05;;;;;;;17.67;5.78;;;;;;;;;;6276952;22;20339;-71
2022/07/03 00:41:32;;;;;;;14.50;5.43;;;;;;;;;;6276407;22;20410;-71
2022/07/03 00:43:58;;;;;;;16.60;5.38;;;;;;;;;;6276606;22;20436;-71
2022/07/03 00:46:24;;;;;;;10.73;4.15;;;;;;;;;;6276575;22;19999;-70
2022/07/03 00:48:50;;;;;;;10.85;5.30;;;;;;;;;;6277017;22;19995;-71
2022/07/03 00:51:18;;;;;;;15.85;4.93;;;;;;;;;;6249573;22;20011;-70
2022/07/03 00:53:45;;;;;;;10.95;4.90;;;;;;;;;;6276854;22;19999;-71
2022/07/03 00:56:13;;;;;;;17.98;5.97;;;;;;;;;;6276698;22;19996;-71
2022/07/03 00:58:38;;;;;;;18.27;5.35;;;;;;;;;;6276845;22;20039;-71
2022/07/03 01:01:03;;;;;;;18.38;5.15;;;;;;;;;;6276731;22;20081;-70
2022/07/03 01:03:32;;;;;;;13.02;5.15;;;;;;;;;;6273764;22;20002;-71
2022/07/03 01:06:03;;;;;;;11.50;4.60;;;;;;;;;;6274807;22;20012;-71
2022/07/03 01:08:28;;;;;;;12.90;5.28;;;;;;;;;;6276162;22;19988;-71
2022/07/03 01:11:08;;;;;;;11.95;4.68;;;;;;;;;;6275983;22;19996;-71
2022/07/03 01:13:45;;;;;;;16.83;6.13;;;;;;;;;;6276847;22;20064;-71
2022/07/03 01:16:18;;;;;;;15.10;5.38;;;;;;;;;;6276184;22;20002;-72
2022/07/03 01:18:54;;;;;;;11.65;5.10;;;;;;;;;;6276766;22;20007;-72
2022/07/03 01:21:35;;;;;;;13.13;5.07;;;;;;;;;;6277086;22;19988;-72
2022/07/03 01:24:01;;;;;;;12.32;4.47;;;;;;;;;;6276451;22;20000;-71
2022/07/03 01:26:27;;;;;;;14.65;4.95;;;;;;;;;;6276609;22;19999;-71
2022/07/03 01:28:52;;;;;;;12.40;4.38;;;;;;;;;;6276095;22;20007;-71
2022/07/03 01:31:19;;;;;;;11.65;4.55;;;;;;;;;;6275778;22;20016;-71
2022/07/03 01:33:45;;;;;;;18.30;5.00;;;;;;;;;;6276351;22;20045;-71
2022/07/03 01:36:12;;;;;;;17.00;4.88;;;;;;;;;;6276520;22;20057;-71
2022/07/03 01:38:39;;;;;;;18.05;5.18;;;;;;;;;;6276447;22;20010;-71
2022/07/03 01:41:07;;;;;;;10.05;4.57;;;;;;;;;;6275644;22;20011;-71
2022/07/03 01:43:33;;;;;;;11.85;4.78;;;;;;;;;;6276637;22;20011;-71
2022/07/03 01:45:59;;;;;;;13.25;5.07;;;;;;;;;;6276202;22;20090;-71
2022/07/03 01:48:25;;;;;;;13.68;4.50;;;;;;;;;;6276715;22;19992;-71
2022/07/03 01:50:50;;;;;;;9.02;4.38;;;;;;;;;;6275495;22;20008;-71
2022/07/03 01:53:16;;;;;;;12.00;4.13;;;;;;;;;;6276709;22;20000;-71
2022/07/03 01:55:42;;;;;;;15.30;4.95;;;;;;;;;;6276173;22;19992;-71
2022/07/03 01:58:08;;;;;;;12.15;5.28;;;;;;;;;;6276855;22;20006;-71
2022/07/03 02:00:46;;;;;;;16.95;5.80;;;;;;;;;;6275998;22;20030;-71
2022/07/03 02:03:14;;;;;;;9.45;3.97;;;;;;;;;;6276494;22;20305;-71
2022/07/03 02:05:44;;;;;;;11.60;4.50;;;;;;;;;;6276466;22;20004;-72
2022/07/03 02:08:12;;;;;;;15.43;4.55;;;;;;;;;;6276581;22;20015;-72
2022/07/03 02:10:39;;;;;;;14.90;4.43;;;;;;;;;;6275829;22;20355;-71
2022/07/03 02:13:12;;;;;;;11.05;5.22;;;;;;;;;;6276209;22;20012;-71
2022/07/03 02:15:40;;;;;;;13.63;4.68;;;;;;;;;;6276620;22;20003;-71
2022/07/03 02:18:10;;;;;;;12.65;4.70;;;;;;;;;;6278389;22;20463;-71
2022/07/03 02:20:39;;;;;;;17.42;4.60;;;;;;;;;;6277980;22;20010;-71
2022/07/03 02:23:05;;;;;;;13.73;4.93;;;;;;;;;;6277995;22;19992;-71
2022/07/03 02:25:30;;;;;;;13.07;4.60;;;;;;;;;;6278119;22;20008;-71
2022/07/03 02:27:57;;;;;;;17.70;4.70;;;;;;;;;;6278364;22;20003;-71
2022/07/03 02:30:23;;;;;;;16.02;5.15;;;;;;;;;;6277656;22;20118;-71
2022/07/03 02:32:49;;;;;;;12.57;4.60;;;;;;;;;;6278016;22;20061;-71
2022/07/03 02:35:31;;;;;;;12.30;5.20;;;;;;;;;;6278105;22;20312;-70
2022/07/03 02:38:04;;;;;;;14.50;4.60;;;;;;;;;;6278107;22;20008;-71
2022/07/03 02:40:47;;;;;;;14.52;5.07;;;;;;;;;;6277311;22;20019;-71
2022/07/03 02:43:12;;;;;;;15.00;4.53;;;;;;;;;;6278047;22;20008;-71
2022/07/03 02:45:56;;;;;;;10.75;4.28;;;;;;;;;;6277474;22;20030;-71
2022/07/03 02:48:29;;;;;;;12.40;4.95;;;;;;;;;;6278142;22;20003;-72
2022/07/03 02:50:58;;;;;;;10.82;4.60;;;;;;;;;;6277066;22;20331;-71
2022/07/03 02:53:23;;;;;;;15.90;5.45;;;;;;;;;;6278370;22;20004;-71
2022/07/03 02:55:50;;;;;;;13.48;4.95;;;;;;;;;;6277678;22;20090;-71
2022/07/03 02:58:34;;;;;;;11.88;4.75;;;;;;;;;;6278308;22;20078;-71
2022/07/03 03:01:12;;;;;;;9.80;4.72;;;;;;;;;;6277150;22;20007;-71
2022/07/03 03:03:43;;;;;;;13.48;5.45;;;;;;;;;;6278004;22;20000;-71
2022/07/03 03:06:15;;;;;;;17.25;4.63;;;;;;;;;;6277865;22;20075;-71
2022/07/03 03:08:48;;;;;;;11.18;4.63;;;;;;;;;;6277966;22;20026;-72
2022/07/03 03:11:24;;;;;;;10.48;4.68;;;;;;;;;;6276882;22;20094;-71
2022/07/03 03:13:50;;;;;;;9.32;4.53;;;;;;;;;;6250697;22;20373;-71
2022/07/03 03:16:15;;;;;;;11.15;4.65;;;;;;;;;;6277264;22;20023;-71
2022/07/03 03:18:41;;;;;;;13.80;5.30;;;;;;;;;;6277557;22;20450;-71
2022/07/03 03:21:10;;;;;;;14.95;4.95;;;;;;;;;;6277462;22;20030;-70
2022/07/03 03:23:35;;;;;;;14.88;5.00;;;;;;;;;;6277847;22;20077;-71
2022/07/03 03:26:00;;;;;;;12.73;4.43;;;;;;;;;;6277229;22;20421;-71
2022/07/03 03:28:26;;;;;;;11.07;4.55;;;;;;;;;;6277926;22;20023;-70
2022/07/03 03:30:51;;;;;;;10.30;4.70;;;;;;;;;;6277063;22;20424;-71
2022/07/03 03:33:16;;;;;;;7.97;4.00;;;;;;;;;;6277791;22;20015;-71
2022/07/03 03:35:42;;;;;;;19.85;4.88;;;;;;;;;;6277210;22;19992;-71
2022/07/03 03:38:07;;;;;;;11.15;4.32;;;;;;;;;;6277794;22;20007;-71
2022/07/03 03:40:33;;;;;;;12.35;4.57;;;;;;;;;;6277149;22;20038;-71
2022/07/03 03:42:58;;;;;;;13.57;4.40;;;;;;;;;;6277456;22;20073;-71
2022/07/03 03:45:24;;;;;;;11.98;4.88;;;;;;;;;;6277502;22;20007;-71
2022/07/03 03:47:49;;;;;;;14.30;5.38;;;;;;;;;;6277103;22;20054;-71
2022/07/03 03:50:14;;;;;;;17.52;4.70;;;;;;;;;;6277147;22;19991;-71
2022/07/03 03:52:40;;;;;;;12.88;4.78;;;;;;;;;;6277547;22;20086;-70
2022/07/03 03:55:06;;;;;;;11.55;4.60;;;;;;;;;;6276960;22;20294;-71
2022/07/03 03:57:31;;;;;;;12.13;4.47;;;;;;;;;;6277540;22;20616;-70
2022/07/03 03:59:57;;;;;;;12.60;4.50;;;;;;;;;;6276874;22;20000;-70
2022/07/03 04:02:23;;;;;;;9.80;4.78;;;;;;;;;;6277312;22;20003;-70
2022/07/03 04:04:48;;;;;;;15.23;5.32;;;;;;;;;;6250079;22;20057;-70
2022/07/03 04:07:13;;;;;;;15.77;4.32;;;;;;;;;;6249998;22;20003;-70
2022/07/03 04:09:38;;;;;;;16.92;5.07;;;;;;;;;;6277050;22;20010;-71
2022/07/03 04:12:04;;;;;;;11.85;4.35;;;;;;;;;;6276959;22;20443;-70
2022/07/03 04:14:29;;;;;;;13.05;5.05;;;;;;;;;;6276972;22;20074;-70
2022/07/03 04:16:55;;;;;;;11.98;3.92;;;;;;;;;;6276288;22;20000;-70
2022/07/03 04:19:21;;;;;;;10.20;4.68;;;;;;;;;;6277578;22;19992;-71
2022/07/03 04:21:46;;;;;;;15.68;5.32;;;;;;;;;;6276521;22;20397;-71
2022/07/03 04:24:11;;;;;;;12.50;4.57;;;;;;;;;;6277191;22;20053;-70
2022/07/03 04:26:36;;;;;;;10.52;4.60;;;;;;;;;;6277071;22;19992;-70
2022/07/03 04:29:01;;;;;;;10.73;4.47;;;;;;;;;;6277078;22;20049;-70
2022/07/03 04:31:27;;;;;;;9.82;4.30;;;;;;;;;;6276693;22;20011;-70
2022/07/03 04:33:52;;;;;;;9.82;3.92;;;;;;;;;;6277480;22;19999;-71
2022/07/03 04:36:17;;;;;;;16.88;4.80;;;;;;;;;;6276847;22;20002;-70
2022/07/03 04:38:43;;;;;;;20.55;4.88;;;;;;;;;;6276760;22;20097;-71
2022/07/03 04:41:08;;;;;;;13.07;4.20;;;;;;;;;;6275931;22;20011;-70
2022/07/03 04:43:34;;;;;;;8.70;3.88;;;;;;;;;;6276956;22;20002;-70
2022/07/03 04:45:59;;;;;;;9.27;4.00;;;;;;;;;;6276602;22;20004;-70
2022/07/03 04:48:24;;;;;;;10.35;3.30;;;;;;;;;;6249418;22;20415;-71
2022/07/03 04:50:49;;;;;;;8.50;3.42;;;;;;;;;;6276179;22;20079;-70
2022/07/03 04:53:14;;;;;;;7.78;2.60;;;;;;;;;;6277065;22;20011;-70
2022/07/03 04:55:40;;;;;;;6.50;2.00;;;;;;;;;;6276419;22;19999;-70
2022/07/03 04:58:05;;;;;;;6.90;2.50;;;;;;;;;;6277007;22;20412;-70
2022/07/03 05:00:31;;;;;;;3.88;2.30;;;;;;;;;;6276486;22;20007;-70
2022/07/03 05:02:56;;;;;;;9.80;2.72;;;;;;;;;;6276353;22;20025;-70
2022/07/03 05:05:21;;;;;;;8.07;2.45;;;;;;;;;;6276273;22;20027;-70
2022/07/03 05:07:47;;;;;;;8.63;2.10;;;;;;;;;;6276587;22;20312;-70
2022/07/03 05:10:12;;;;;;;7.10;2.00;;;;;;;;;;6276611;22;19995;-70
2022/07/03 05:12:37;;;;;;;6.70;1.95;;;;;;;;;;6276383;22;20008;-70
2022/07/03 05:15:03;;;;;;;9.23;2.60;;;;;;;;;;6276485;22;20011;-70
2022/07/03 05:17:28;;;;;;;6.82;2.28;;;;;;;;;;6276432;22;20357;-70
2022/07/03 05:20:23;;;;;;;6.20;2.30;;;;;;;;;;6276271;22;20091;-70
2022/07/03 05:22:38;;;;;;;10.18;2.50;;;;;;;;;;6276023;22;20015;-70
2022/07/03 05:25:04;;;;;;;8.20;2.38;;;;;;;;;;6276220;22;20001;-70
2022/07/03 05:27:29;;;;;;;18.20;3.08;;;;;;;;;;6276751;22;20416;-71
2022/07/03 05:29:54;;;;;;;25.58;2.92;;;;;;;;;;6276331;22;20412;-70
2022/07/03 05:32:20;;;;;;;20.92;2.22;;;;;;;;;;6276476;22;20332;-71
2022/07/03 05:34:45;;;;;;;5.13;1.85;;;;;;;;;;6276274;22;20394;-71
2022/07/03 05:37:10;;;;;;;5.88;1.83;;;;;;;;;;6276516;22;20015;-71
2022/07/03 05:39:37;;;;;;;4.90;2.05;;;;;;;;;;6276490;22;20008;-71
2022/07/03 05:42:03;;;;;;;4.63;2.05;;;;;;;;;;6276089;22;20294;-71
2022/07/03 05:44:28;;;;;;;4.00;1.88;;;;;;;;;;6249550;22;20137;-71
2022/07/03 05:46:54;;;;;;;6.57;2.40;;;;;;;;;;6276266;22;20057;-71
2022/07/03 05:49:19;;;;;;;5.13;1.98;;;;;;;;;;6276543;22;20003;-71
2022/07/03 05:51:44;;;;;;;5.57;1.92;;;;;;;;;;6277979;22;20079;-71
2022/07/03 05:54:10;;;;;;;9.00;2.10;;;;;;;;;;6278984;22;20005;-71
2022/07/03 05:56:35;;;;;;;4.10;2.17;;;;;;;;;;6278252;22;20316;-71
2022/07/03 05:59:00;;;;;;;6.82;2.25;;;;;;;;;;6278405;22;19995;-71
2022/07/03 06:01:25;;;;;;;10.45;2.10;;;;;;;;;;6278231;22;20121;-72
2022/07/03 06:03:51;;;;;;;9.20;1.95;;;;;;;;;;6278705;22;20065;-71
2022/07/03 06:06:16;;;;;;;3.97;1.80;;;;;;;;;;6278180;22;20068;-71
2022/07/03 06:08:41;;;;;;;3.47;1.90;;;;;;;;;;6278475;22;20065;-71
2022/07/03 06:11:06;;;;;;;6.18;1.80;;;;;;;;;;6277312;22;20043;-71
2022/07/03 06:13:32;;;;;;;5.50;1.98;;;;;;;;;;6278017;22;20006;-71
2022/07/03 06:15:57;;;;;;;6.45;2.08;;;;;;;;;;6277595;22;20072;-71
2022/07/03 06:18:22;;;;;;;6.90;2.03;;;;;;;;;;6278296;22;20007;-71
2022/07/03 06:20:47;;;;;;;3.58;1.80;;;;;;;;;;6278035;22;20014;-71
2022/07/03 06:23:13;;;;;;;4.07;1.80;;;;;;;;;;6278206;22;20007;-70
2022/07/03 06:25:38;;;;;;;6.00;1.60;;;;;;;;;;6277348;22;20082;-70
2022/07/03 06:28:03;;;;;;;4.10;1.60;;;;;;;;;;6278311;22;19996;-71
2022/07/03 06:30:29;;;;;;;3.33;1.60;;;;;;;;;;6277572;22;20022;-72
2022/07/03 06:32:54;;;;;;;4.65;1.45;;;;;;;;;;6278241;22;20015;-71
2022/07/03 06:35:19;;;;;;;3.03;1.50;;;;;;;;;;6277732;22;20412;-71
2022/07/03 06:37:44;;;;;;;4.07;1.63;;;;;;;;;;6278126;22;20000;-72
2022/07/03 06:40:10;;;;;;;4.10;1.27;;;;;;;;;;6277530;22;20343;-72
2022/07/03 06:42:35;;;;;;;3.65;1.35;;;;;;;;;;6277813;22;20063;-72
2022/07/03 06:45:00;;;;;;;6.22;1.42;;;;;;;;;;6277902;22;20004;-72
2022/07/03 06:47:25;;;;;;;3.47;1.45;;;;;;;;;;6278087;22;20030;-72
2022/07/03 06:49:51;;;;;;;4.15;1.30;;;;;;;;;;6277672;22;19995;-72
2022/07/03 06:52:16;;;;;;;3.65;1.25;;;;;;;;;;6277950;22;20094;-70
2022/07/03 06:54:43;;;;;;;3.15;1.33;;;;;;;;;;6277753;22;20004;-71
2022/07/03 06:57:09;;;;;;;4.13;1.40;;;;;;;;;;6277988;22;20416;-70
2022/07/03 06:59:34;;;;;;;3.65;1.30;;;;;;;;;;6277600;22;20004;-71
2022/07/03 07:01:59;;;;;;;4.38;1.58;;;;;;;;;;6276900;22;20053;-72
2022/07/03 07:04:24;;;;;;;5.75;1.50;;;;;;;;;;6277922;22;19992;-72
2022/07/03 07:06:50;;;;;;;5.18;1.35;;;;;;;;;;6277690;22;20360;-72
2022/07/03 07:09:15;;;;;;;6.05;1.50;;;;;;;;;;6277906;22;20007;-72
2022/07/03 07:11:40;;;;;;;4.28;1.40;;;;;;;;;;6277192;22;20061;-72
2022/07/03 07:14:05;;;;;;;5.20;1.48;;;;;;;;;;6277953;22;20420;-72
2022/07/03 07:16:31;;;;;;;5.78;1.63;;;;;;;;;;6277356;22;20075;-72
2022/07/03 07:18:56;;;;;;;5.70;1.85;;;;;;;;;;6277381;22;19992;-71
2022/07/03 07:21:21;;;;;;;7.18;1.42;;;;;;;;;;6277525;22;20020;-71
2022/07/03 07:23:46;;;;;;;7.50;1.42;;;;;;;;;;6277796;22;20765;-71
2022/07/03 07:26:12;;;;;;;7.90;1.87;;;;;;;;;;6277015;22;20007;-71
2022/07/03 07:28:37;;;;;;;5.45;1.60;;;;;;;;;;6277790;22;20217;-71
2022/07/03 07:31:02;;;;;;;4.70;1.70;;;;;;;;;;6277294;22;20434;-71
2022/07/03 07:33:27;;;;;;;7.22;1.88;;;;;;;;;;6277863;22;19995;-71
2022/07/03 07:35:53;;;;;;;4.78;1.50;;;;;;;;;;6276955;22;20018;-72
2022/07/03 07:38:18;;;;;;;4.33;1.83;;;;;;;;;;6277745;22;20003;-71
2022/07/03 07:40:43;;;;;;;3.67;1.50;;;;;;;;;;6276863;22;20661;-72
2022/07/03 07:43:09;;;;;;;6.20;1.77;;;;;;;;;;6277524;22;20061;-71
2022/07/03 07:45:34;;;;;;;4.53;1.40;;;;;;;;;;6276908;22;20004;-71
2022/07/03 07:47:59;;;;;;;5.05;1.65;;;;;;;;;;6276698;22;20372;-71
2022/07/03 07:50:25;;;;;;;6.45;1.83;;;;;;;;;;6277058;22;20000;-71
2022/07/03 07:52:50;;;;;;;4.88;1.95;;;;;;;;;;6277506;22;20008;-71
2022/07/03 07:55:15;;;;;;;5.50;1.70;;;;;;;;;;6277189;22;20416;-72
2022/07/03 07:57:41;;;;;;;3.28;1.40;;;;;;;;;;6277247;22;20000;-72
2022/07/03 08:00:06;;;;;;;6.97;1.77;;;;;;;;;;6276434;22;20008;-72
2022/07/03 08:07:59;;;;;;;5.78;1.70;;;;;;;;;;6276381;22;20018;-71
2022/07/03 08:10:25;;;;;;;3.40;1.40;;;;;;;;;;6277502;22;20019;-72
2022/07/03 08:12:50;;;;;;;5.10;1.50;;;;;;;;;;6276975;22;20229;-72
2022/07/03 08:15:15;;;;;;;6.30;1.40;;;;;;;;;;6277413;22;20002;-72
2022/07/03 08:17:40;;;;;;;4.93;1.30;;;;;;;;;;6277208;22;20213;-72
2022/07/03 08:20:06;;;;;;;4.63;1.50;;;;;;;;;;6277383;22;20244;-72
2022/07/03 08:22:31;;;;;;;6.55;1.60;;;;;;;;;;6277115;22;20006;-72
2022/07/03 08:24:56;;;;;;;4.53;1.30;;;;;;;;;;6276699;22;20412;-71
2022/07/03 08:27:22;;;;;;;2.17;1.10;;;;;;;;;;6276999;22;20771;-71
2022/07/03 08:29:47;;;;;;;4.40;1.57;;;;;;;;;;6276665;22;20645;-72
2022/07/03 08:32:12;;;;;;;4.47;1.20;;;;;;;;;;6277041;22;20428;-72
2022/07/03 08:34:37;;;;;;;4.63;1.40;;;;;;;;;;6276786;22;20232;-72
2022/07/03 08:37:03;;;;;;;4.77;1.30;;;;;;;;;;6276766;22;19998;-72
2022/07/03 08:39:28;;;;;;;3.20;1.00;;;;;;;;;;6249977;22;20225;-71
2022/07/03 08:41:54;;;;;;;3.72;1.20;;;;;;;;;;6276206;22;20463;-71
2022/07/03 08:44:20;;;;;;;3.65;1.00;;;;;;;;;;6277198;22;19992;-70
2022/07/03 08:46:47;;;;;;;4.43;1.30;;;;;;;;;;6276435;22;19995;-71
2022/07/03 08:49:12;;;;;;;2.85;1.30;;;;;;;;;;6276788;22;20000;-71
2022/07/03 08:51:37;;;;;;;2.40;1.00;;;;;;;;;;6276629;22;20062;-73
2022/07/03 08:54:04;;;;;;;4.07;1.13;;;;;;;;;;6249480;22;20004;-72
2022/07/03 08:56:29;;;;;;;3.25;0.90;;;;;;;;;;6276673;22;19999;-71
2022/07/03 08:58:57;;;;;;;3.42;1.05;;;;;;;;;;6276337;22;20011;-71
2022/07/03 09:01:22;;;;;;;3.92;1.00;;;;;;;;;;6276634;22;20008;-72
2022/07/03 09:03:48;;;;;;;2.83;1.00;;;;;;;;;;6276838;22;20053;-72
2022/07/03 09:06:13;;;;;;;3.70;1.10;;;;;;;;;;6276887;22;20053;-72
2022/07/03 09:08:39;;;;;;;3.78;1.55;;;;;;;;;;6276917;22;20007;-72
2022/07/03 09:11:05;;;;;;;5.68;1.05;;;;;;;;;;6276722;22;20440;-72
2022/07/03 09:13:30;;;;;;;3.30;1.13;;;;;;;;;;6276735;22;19996;-72
2022/07/03 09:15:55;;;;;;;4.70;1.30;;;;;;;;;;6276300;22;20004;-73
2022/07/03 09:18:39;;;;;;;4.03;1.00;;;;;;;;;;6276026;22;20425;-72
2022/07/03 09:21:05;;;;;;;4.75;1.00;;;;;;;;;;6276034;22;20016;-72
2022/07/03 09:23:38;;;;;;;6.28;1.55;;;;;;;;;;6275796;22;20451;-72
2022/07/03 09:26:04;;;;;;;3.33;1.27;;;;;;;;;;6276395;22;20336;-72
2022/07/03 09:28:51;;;;;;;3.63;1.10;;;;;;;;;;6276565;22;20035;-72
2022/07/03 09:31:17;;;;;;;3.28;1.20;;;;;;;;;;6274427;22;20007;-72
2022/07/03 09:33:59;;;;;;;5.53;1.30;;;;;;;;;;6275794;22;19996;-71
2022/07/03 09:36:43;;;;;;;5.72;1.25;;;;;;;;;;6275121;22;20012;-72
2022/07/03 09:39:34;;;;;;;3.50;1.27;;;;;;;;;;6275022;22;20675;-71
2022/07/03 09:42:06;;;;;;;4.95;1.23;;;;;;;;;;6275269;22;20314;-71
2022/07/03 09:44:31;;;;;;;7.07;1.40;;;;;;;;;;6276776;22;19996;-71
2022/07/03 09:47:10;;;;;;;6.15;1.30;;;;;;;;;;6276136;22;20018;-71
2022/07/03 09:49:54;;;;;;;3.67;1.23;;;;;;;;;;6276611;22;20003;-71
2022/07/03 09:52:25;;;;;;;7.50;1.00;;;;;;;;;;6276607;22;20011;-71
2022/07/03 09:54:50;;;;;;;4.15;1.30;;;;;;;;;;6276724;22;20000;-71
2022/07/03 09:57:15;;;;;;;3.80;1.40;;;;;;;;;;6276576;22;20069;-71
2022/07/03 09:59:41;;;;;;;3.42;1.08;;;;;;;;;;6276578;22;20407;-72
2022/07/03 10:02:08;;;;;;;5.13;1.13;;;;;;;;;;6276319;22;20439;-72
2022/07/03 10:04:33;;;;;;;4.38;0.90;;;;;;;;;;6276740;22;20016;-73
2022/07/03 10:06:59;;;;;;;3.95;1.20;;;;;;;;;;6276601;22;20352;-72
2022/07/03 10:09:25;;;;;;;3.67;0.95;;;;;;;;;;6276779;22;20000;-72
2022/07/03 10:11:51;;;;;;;4.30;1.20;;;;;;;;;;6276083;22;20467;-72
2022/07/03 10:14:18;;;;;;;5.78;1.10;;;;;;;;;;6276609;22;19992;-73
2022/07/03 10:16:43;;;;;;;2.60;1.20;;;;;;;;;;6276515;22;20011;-72
2022/07/03 10:19:13;;;;;;;3.38;1.40;;;;;;;;;;6276531;22;20004;-72
2022/07/03 10:21:39;;;;;;;4.68;1.05;;;;;;;;;;6276458;22;20087;-73
2022/07/03 10:24:04;;;;;;;3.90;1.10;;;;;;;;;;6275971;22;20437;-73
2022/07/03 10:26:30;;;;;;;3.95;1.13;;;;;;;;;;6276481;22;20007;-72
2022/07/03 10:28:56;;;;;;;4.82;1.50;;;;;;;;;;6266714;22;20479;-72
2022/07/03 10:31:22;;;;;;;4.70;1.40;;;;;;;;;;6275772;22;19999;-72
2022/07/03 10:33:48;;;;;;;2.60;1.17;;;;;;;;;;6275451;22;20079;-72
2022/07/03 10:36:13;;;;;;;4.55;1.30;;;;;;;;;;6276643;22;20026;-72
2022/07/03 10:38:40;;;;;;;4.95;1.10;;;;;;;;;;6276969;22;20006;-72
2022/07/03 10:46:35;;;;;;;5.72;1.67;;;;;;;;;;6277502;22;20018;-72
2022/07/03 10:49:03;;;;;;;4.85;1.35;;;;;;;;;;6277227;22;19991;-72
2022/07/03 10:51:31;;;;;;;4.10;1.40;;;;;;;;;;6271289;22;20324;-72
2022/07/03 10:54:11;;;;;;;6.05;1.40;;;;;;;;;;6277623;22;19998;-72
2022/07/03 10:57:00;;;;;;;5.60;1.38;;;;;;;;;;6277782;22;20004;-73
2022/07/03 10:59:34;;;;;;;5.18;1.40;;;;;;;;;;6260969;22;20014;-72
2022/07/03 11:02:19;;;;;;;5.30;1.30;;;;;;;;;;6277640;22;20083;-72
2022/07/03 11:05:05;;;;;;;3.78;1.38;;;;;;;;;;6255929;22;20011;-72
2022/07/03 11:07:49;;;;;;;3.72;1.20;;;;;;;;;;6254664;22;20015;-72
2022/07/03 11:10:15;;;;;;;3.20;1.10;;;;;;;;;;6275860;22;20057;-72
2022/07/03 11:12:55;;;;;;;3.00;1.08;;;;;;;;;;6276585;22;20004;-73
2022/07/03 11:15:29;;;;;;;3.10;1.10;;;;;;;;;;6276179;22;20087;-72
2022/07/03 11:18:13;;;;;;;6.18;1.27;;;;;;;;;;6276768;22;20102;-73
2022/07/03 11:20:41;;;;;;;5.28;1.00;;;;;;;;;;6276415;22;20004;-72
2022/07/03 11:23:09;;;;;;;2.85;1.15;;;;;;;;;;6277568;22;20004;-72
2022/07/03 11:25:41;;;;;;;4.43;1.33;;;;;;;;;;6277799;22;20000;-72
2022/07/03 11:28:07;;;;;;;3.05;0.80;;;;;;;;;;6277474;22;20065;-72
2022/07/03 11:30:32;;;;;;;1.95;0.95;;;;;;;;;;6277461;22;20078;-72
2022/07/03 11:32:58;;;;;;;3.35;0.98;;;;;;;;;;6277384;22;19992;-72
2022/07/03 11:35:41;;;;;;;2.55;0.90;;;;;;;;;;6276875;22;20035;-72
2022/07/03 11:38:06;;;;;;;;;;;;;;;;;;6277595;22;20003;-72
2022/07/03 11:40:34;;;;;;;2.38;1.40;;;;;;;;;;6276686;22;19939;-72
2022/07/03 11:42:59;;;;;;;2.20;0.93;;;;;;;;;;6277650;22;20015;-72
2022/07/03 11:45:27;;;;;;;3.92;0.90;;;;;;;;;;6277187;22;19992;-72
2022/07/03 11:47:53;;;;;;;2.83;1.10;;;;;;;;;;6276674;22;20385;-72
2022/07/03 11:50:19;;;;;;;3.50;1.27;;;;;;;;;;6277385;22;20000;-72
2022/07/03 11:52:44;;;;;;;2.55;1.10;;;;;;;;;;6277390;22;19992;-72
2022/07/03 11:55:09;;;;;;;4.00;1.00;;;;;;;;;;6277209;22;20368;-72
2022/07/03 11:57:34;;;;;;;2.75;0.95;;;;;;;;;;6277436;22;20011;-72
2022/07/03 12:00:04;;;;;;;2.65;1.00;;;;;;;;;;6276569;22;20002;-72
2022/07/03 12:02:29;;;;;;;3.42;1.13;;;;;;;;;;6277404;22;20023;-72
2022/07/03 12:04:54;;;;;;;2.65;0.93;;;;;;;;;;6277049;22;20604;-72
2022/07/03 12:07:19;;;;;;;2.25;0.95;;;;;;;;;;6277193;22;20375;-72
2022/07/03 12:09:45;;;;;;;2.00;0.88;;;;;;;;;;6277000;22;19999;-72
2022/07/03 12:12:10;;;;;;;2.60;1.10;;;;;;;;;;6250255;22;20007;-72
2022/07/03 12:14:38;;;;;;;3.22;0.90;;;;;;;;;;6276917;22;19995;-72
2022/07/03 12:17:03;;;;;;;3.35;1.15;;;;;;;;;;6276983;22;20011;-73
2022/07/03 12:19:28;;;;;;;2.25;1.02;;;;;;;;;;6277113;22;20004;-72
2022/07/03 12:21:54;;;;;;;3.00;1.00;;;;;;;;;;6276530;22;20367;-72
2022/07/03 12:24:20;;;;;;;3.70;1.00;;;;;;;;;;6276642;22;20006;-72
2022/07/03 12:26:45;;;;;;;3.35;1.52;;;;;;;;;;6276639;22;20443;-72
2022/07/03 12:29:12;;;;;;;1.40;0.80;;;;;;;;;;6276344;22;20068;-72
2022/07/03 12:31:41;;;;;;;1.75;0.77;;;;;;;;;;6277021;22;20422;-72
2022/07/03 12:34:07;;;;;;;2.35;0.82;;;;;;;;;;6276841;22;20008;-72
2022/07/03 12:36:32;;;;;;;2.70;1.00;;;;;;;;;;6276790;22;19998;-72
2022/07/03 12:38:59;;;;;;;2.42;0.93;;;;;;;;;;6276956;22;20083;-72
2022/07/03 12:41:24;;;;;;;4.18;1.23;;;;;;;;;;6276611;22;20011;-72
2022/07/03 12:43:51;;;;;;;1.65;0.70;;;;;;;;;;6275386;22;20066;-72
2022/07/03 12:46:16;;;;;;;2.38;0.90;;;;;;;;;;6276644;22;20007;-73
2022/07/03 12:48:57;;;;;;;3.40;1.00;;;;;;;;;;6276199;22;20008;-72
2022/07/03 12:51:41;;;;;;;2.47;0.93;;;;;;;;;;6276850;22;20026;-72
2022/07/03 12:54:10;;;;;;;4.05;1.00;;;;;;;;;;6276542;22;20015;-72
2022/07/03 12:56:35;;;;;;;2.13;1.08;;;;;;;;;;6276601;22;20031;-72
2022/07/03 12:59:19;;;;;;;1.88;0.77;;;;;;;;;;6276514;22;20696;-72
2022/07/03 13:01:45;;;;;;;3.80;0.88;;;;;;;;;;6276511;22;20022;-72
2022/07/03 13:04:14;;;;;;;1.98;0.82;;;;;;;;;;6276402;22;20067;-72
2022/07/03 13:06:40;;;;;;;2.45;0.90;;;;;;;;;;6276531;22;19991;-72
2022/07/03 13:09:05;;;;;;;1.73;0.80;;;;;;;;;;6276756;22;20041;-72
2022/07/03 13:11:31;;;;;;;1.73;0.70;;;;;;;;;;6276485;22;20007;-72
2022/07/03 13:14:04;;;;;;;2.65;0.80;;;;;;;;;;6276864;22;20134;-73
2022/07/03 13:16:34;;;;;;;2.45;0.93;;;;;;;;;;6276537;22;20003;-72
2022/07/03 13:19:00;;;;;;;2.38;0.90;;;;;;;;;;6276552;22;20422;-72
2022/07/03 13:21:25;;;;;;;1.90;0.70;;;;;;;;;;6276389;22;20035;-72
2022/07/03 13:23:50;;;;;;;2.58;0.80;;;;;;;;;;6276438;22;20004;-72
2022/07/03 13:26:16;;;;;;;1.45;0.70;;;;;;;;;;6276471;22;20114;-72
2022/07/03 13:28:41;;;;;;;3.08;1.15;;;;;;;;;;6276469;22;19992;-72
2022/07/03 13:31:06;;;;;;;2.33;1.00;;;;;;;;;;6276201;22;19992;-73
2022/07/03 13:33:31;;;;;;;3.40;0.80;;;;;;;;;;6276242;22;20012;-72
2022/07/03 13:35:56;;;;;;;2.75;1.10;;;;;;;;;;6275905;22;20290;-73
2022/07/03 13:38:22;;;;;;;2.85;1.00;;;;;;;;;;6276398;22;20396;-72
2022/07/03 13:40:47;;;;;;;2.85;0.98;;;;;;;;;;6276280;22;20459;-72
2022/07/03 13:43:12;;;;;;;3.00;1.02;;;;;;;;;;6276708;22;20311;-72
2022/07/03 13:45:37;;;;;;;2.20;0.82;;;;;;;;;;6276288;22;20373;-72
2022/07/03 13:48:03;;;;;;;2.97;0.70;;;;;;;;;;6276839;22;20004;-73
2022/07/03 13:50:28;;;;;;;2.47;0.90;;;;;;;;;;6276328;22;20019;-73
2022/07/03 13:52:54;;;;;;;1.40;0.70;;;;;;;;;;6276548;22;19995;-72
2022/07/03 13:55:19;;;;;;;2.65;0.90;;;;;;;;;;6276449;22;20007;-72
2022/07/03 13:57:44;;;;;;;3.28;0.98;;;;;;;;;;6276658;22;19991;-72
2022/07/03 14:00:10;;;;;;;3.88;0.82;;;;;;;;;;6276483;22;19999;-72
2022/07/03 14:02:37;;;;;;;3.15;1.00;;;;;;;;;;6276143;22;20095;-72
2022/07/03 14:05:02;;;;;;;1.25;0.68;;;;;;;;;;6275907;22;20323;-72
2022/07/03 14:07:27;;;;;;;3.95;1.00;;;;;;;;;;6270654;22;20070;-73
2022/07/03 14:09:52;;;;;;;2.83;0.88;;;;;;;;;;6273852;22;20368;-72
2022/07/03 14:12:18;;;;;;;1.90;0.80;;;;;;;;;;6249644;22;20133;-72
2022/07/03 14:14:43;;;;;;;2.67;1.00;;;;;;;;;;6277372;22;20410;-73
2022/07/03 14:17:08;;;;;;;4.28;1.10;;;;;;;;;;6277367;22;20003;-72
2022/07/03 14:19:33;;;;;;;2.33;1.00;;;;;;;;;;6277051;22;20053;-72
2022/07/03 14:21:59;;;;;;;3.63;1.00;;;;;;;;;;6277048;22;20039;-72
2022/07/03 14:24:24;;;;;;;2.03;0.90;;;;;;;;;;6277954;22;20014;-72
2022/07/03 14:32:29;;;;;;;2.10;0.85;;;;;;;;;;6278020;22;20088;-72
2022/07/03 14:34:55;;;;;;;3.75;1.05;;;;;;;;;;6278168;22;20117;-72
2022/07/03 14:37:21;;;;;;;2.35;0.70;;;;;;;;;;6278217;22;20036;-72
2022/07/03 14:39:46;;;;;;;3.63;0.85;;;;;;;;;;6277694;22;20057;-72
2022/07/03 14:42:11;;;;;;;5.43;1.27;;;;;;;;;;6278082;22;20003;-72
2022/07/03 14:44:37;;;;;;;3.22;0.80;;;;;;;;;;6278410;22;20008;-72
2022/07/03 14:47:02;;;;;;;1.95;0.80;;;;;;;;;;6278146;22;19996;-72
2022/07/03 14:49:27;;;;;;;3.00;0.90;;;;;;;;;;6278184;22;19995;-72
2022/07/03 14:51:53;;;;;;;2.08;0.90;;;;;;;;;;6278067;22;20063;-72
2022/07/03 14:54:19;;;;;;;2.10;0.73;;;;;;;;;;6278071;22;19995;-72
2022/07/03 14:56:54;;;;;;;3.20;0.70;;;;;;;;;;6277652;22;20416;-73